Time;durP1;ratioP1;P1;durP2;ratioP2;P2;SDS_P1;SDS_P2;PMS_P1;PMS_P2;Temp;Humidity;BMP_temperature;BMP_pressure;BME280_temperature;BME280_humidity;BME280_pressure;Samples;Min_cycle;Max_cycle;Signal;HPM_P1;HPM_P2
2021/09/04 00:01:31;;;;;;;;;;;12.60;99.90;;;;;;5034303;28;19931;-74
2021/09/04 00:04:03;;;;;;;;;;;12.60;99.90;;;;;;5017853;28;19925;-74
2021/09/04 00:06:29;;;;;;;;;;;12.60;99.90;;;;;;5016645;28;20421;-74
2021/09/04 00:09:01;;;;;;;;;;;12.50;99.90;;;;;;5032938;28;19936;-74
2021/09/04 00:11:28;;;;;;;;;;;12.50;99.90;;;;;;5034436;28;19925;-74
2021/09/04 00:14:00;;;;;;;;;;;12.50;99.90;;;;;;5020344;28;19964;-75
2021/09/04 00:16:32;;;;;;;;;;;12.50;99.90;;;;;;5041471;28;20357;-74
2021/09/04 00:18:59;;;;;;;;;;;12.40;99.90;;;;;;5043673;28;19929;-74
2021/09/04 00:21:26;;;;;;;;;;;12.40;99.90;;;;;;5032133;28;19925;-74
2021/09/04 00:23:52;;;;;;;;;;;12.40;99.90;;;;;;5020356;28;20417;-74
2021/09/04 00:26:22;;;;;;;;;;;12.30;99.90;;;;;;5047320;28;19932;-74
2021/09/04 00:28:49;;;;;;;;;;;12.30;99.90;;;;;;5043432;28;20035;-74
2021/09/04 00:31:16;;;;;;;;;;;12.30;99.90;;;;;;5023422;28;20023;-74
2021/09/04 00:33:47;;;;;;;;;;;12.30;99.90;;;;;;5031537;28;20447;-74
2021/09/04 00:36:14;;;;;;;;;;;12.30;99.90;;;;;;5046059;28;19948;-74
2021/09/04 00:38:46;;;;;;;;;;;12.30;99.90;;;;;;5052285;28;20386;-74
2021/09/04 00:41:17;;;;;;;;;;;12.20;99.90;;;;;;5053925;28;19971;-74
2021/09/04 00:43:49;;;;;;;;;;;12.20;99.90;;;;;;5053804;28;19928;-74
2021/09/04 00:46:16;;;;;;;;;;;12.20;99.90;;;;;;5053495;28;20024;-74
2021/09/04 00:48:43;;;;;;;;;;;12.20;99.90;;;;;;5037267;28;20271;-74
2021/09/04 00:51:09;;;;;;;;;;;12.20;99.90;;;;;;5037106;28;20031;-74
2021/09/04 00:53:41;;;;;;;;;;;12.20;99.90;;;;;;5037620;28;20031;-74
2021/09/04 00:56:14;;;;;;;;;;;12.10;99.90;;;;;;5037611;28;20409;-74
2021/09/04 00:58:41;;;;;;;;;;;12.10;99.90;;;;;;5053699;28;20028;-74
2021/09/04 01:01:08;;;;;;;;;;;12.00;99.90;;;;;;5053008;28;19925;-74
2021/09/04 01:03:41;;;;;;;;;;;12.00;99.90;;;;;;5052103;28;20298;-74
2021/09/04 01:06:11;;;;;;;;;;;12.00;99.90;;;;;;5036164;28;19978;-74
2021/09/04 01:08:40;;;;;;;;;;;12.00;99.90;;;;;;5053998;28;19933;-74
2021/09/04 01:11:13;;;;;;;;;;;12.00;99.90;;;;;;5052688;28;19924;-74
2021/09/04 01:13:40;;;;;;;;;;;12.00;99.90;;;;;;5053138;28;20027;-74
2021/09/04 01:16:07;;;;;;;;;;;12.00;99.90;;;;;;5052286;28;20031;-74
2021/09/04 01:18:33;;;;;;;;;;;12.00;99.90;;;;;;5036527;28;20461;-74
2021/09/04 01:21:04;;;;;;;;;;;11.90;99.90;;;;;;5036178;28;19960;-74
2021/09/04 01:23:30;;;;;;;;;;;11.80;99.90;;;;;;5053090;28;20364;-74
2021/09/04 01:26:04;;;;;;;;;;;11.80;99.90;;;;;;5052633;28;19971;-74
2021/09/04 01:28:31;;;;;;;;;;;11.80;99.90;;;;;;5052774;28;20023;-74
2021/09/04 01:31:03;;;;;;;;;;;11.80;99.90;;;;;;5052949;28;19925;-74
2021/09/04 01:33:30;;;;;;;;;;;11.80;99.90;;;;;;5052591;28;19968;-74
2021/09/04 01:35:57;;;;;;;;;;;11.80;99.90;;;;;;5035280;28;20387;-74
2021/09/04 01:38:29;;;;;;;;;;;11.80;99.90;;;;;;5053362;28;20015;-74
2021/09/04 01:40:55;;;;;;;;;;;11.80;99.90;;;;;;5035430;28;19960;-74
2021/09/04 01:43:27;;;;;;;;;;;11.70;99.90;;;;;;5036018;28;19929;-74
2021/09/04 01:45:59;;;;;;;;;;;11.60;99.90;;;;;;5051705;28;19931;-74
2021/09/04 01:48:25;;;;;;;;;;;11.60;99.90;;;;;;5052294;28;19963;-74
2021/09/04 01:50:52;;;;;;;;;;;11.60;99.90;;;;;;5035697;28;19968;-74
2021/09/04 01:53:23;;;;;;;;;;;11.50;99.90;;;;;;5052133;28;19925;-75
2021/09/04 01:55:55;;;;;;;;;;;11.50;99.90;;;;;;5036072;28;20345;-74
2021/09/04 01:58:22;;;;;;;;;;;11.50;99.90;;;;;;5052272;28;20019;-74
2021/09/04 02:00:53;;;;;;;;;;;11.50;99.90;;;;;;5036317;28;20222;-73
2021/09/04 02:03:25;;;;;;;;;;;11.40;99.90;;;;;;5036366;28;19924;-74
2021/09/04 02:05:57;;;;;;;;;;;11.40;99.90;;;;;;5051882;28;19925;-74
2021/09/04 02:08:23;;;;;;;;;;;11.40;99.90;;;;;;5052012;28;20353;-74
2021/09/04 02:10:50;;;;;;;;;;;11.50;99.90;;;;;;5053187;28;20023;-74
2021/09/04 02:13:17;;;;;;;;;;;11.40;99.90;;;;;;5034900;28;19924;-74
2021/09/04 02:15:48;;;;;;;;;;;11.40;99.90;;;;;;5050711;28;20322;-73
2021/09/04 02:18:15;;;;;;;;;;;11.30;99.90;;;;;;5051794;28;20016;-74
2021/09/04 02:20:48;;;;;;;;;;;11.30;99.90;;;;;;5036157;28;19929;-74
2021/09/04 02:23:20;;;;;;;;;;;11.30;99.90;;;;;;5052929;28;19929;-73
2021/09/04 02:25:47;;;;;;;;;;;11.20;99.90;;;;;;5051689;28;19932;-73
2021/09/04 02:28:14;;;;;;;;;;;11.20;99.90;;;;;;5034934;28;19991;-74
2021/09/04 02:30:42;;;;;;;;;;;11.20;99.90;;;;;;5051651;28;20024;-76
2021/09/04 02:33:10;;;;;;;;;;;11.20;99.90;;;;;;5052678;28;19929;-74
2021/09/04 02:35:39;;;;;;;;;;;11.20;99.90;;;;;;5052626;28;20074;-74
2021/09/04 02:38:10;;;;;;;;;;;11.20;99.90;;;;;;5035385;28;19929;-74
2021/09/04 02:40:42;;;;;;;;;;;11.20;99.90;;;;;;5051477;28;19932;-74
2021/09/04 02:43:10;;;;;;;;;;;11.10;99.90;;;;;;5034778;28;19932;-74
2021/09/04 02:45:37;;;;;;;;;;;11.10;99.90;;;;;;5034654;28;19925;-74
2021/09/04 02:48:04;;;;;;;;;;;11.10;99.90;;;;;;5034775;28;19929;-74
2021/09/04 02:50:36;;;;;;;;;;;11.00;99.90;;;;;;5052380;28;20592;-74
2021/09/04 02:53:06;;;;;;;;;;;11.00;99.90;;;;;;5051169;28;19925;-74
2021/09/04 02:55:38;;;;;;;;;;;11.00;99.90;;;;;;5050837;28;19925;-75
2021/09/04 02:58:05;;;;;;;;;;;11.00;99.90;;;;;;5051124;28;19956;-73
2021/09/04 03:00:31;;;;;;;;;;;10.90;99.90;;;;;;5034492;28;20395;-74
2021/09/04 03:02:58;;;;;;;;;;;10.90;99.90;;;;;;5034470;28;20015;-75
2021/09/04 03:05:31;;;;;;;;;;;10.90;99.90;;;;;;5050704;28;20472;-74
2021/09/04 03:07:58;;;;;;;;;;;10.90;99.90;;;;;;5052136;28;20008;-74
2021/09/04 03:10:30;;;;;;;;;;;10.80;99.90;;;;;;5035023;28;19935;-74
2021/09/04 03:13:03;;;;;;;;;;;10.80;99.90;;;;;;5051990;28;19924;-74
2021/09/04 03:15:35;;;;;;;;;;;10.80;99.90;;;;;;5034809;28;19925;-74
2021/09/04 03:18:02;;;;;;;;;;;10.80;99.90;;;;;;5051959;28;20019;-73
2021/09/04 03:20:29;;;;;;;;;;;10.80;99.90;;;;;;5034222;28;19931;-74
2021/09/04 03:23:00;;;;;;;;;;;10.80;99.90;;;;;;5050861;28;20020;-74
2021/09/04 03:25:32;;;;;;;;;;;10.70;99.90;;;;;;5034764;28;20464;-74
2021/09/04 03:28:00;;;;;;;;;;;10.70;99.90;;;;;;5050302;28;19971;-74
2021/09/04 03:30:27;;;;;;;;;;;10.60;99.90;;;;;;5050807;28;19925;-74
2021/09/04 03:32:58;;;;;;;;;;;10.60;99.90;;;;;;5034920;28;19951;-74
2021/09/04 03:35:30;;;;;;;;;;;10.50;99.90;;;;;;5050556;28;19968;-74
2021/09/04 03:37:57;;;;;;;;;;;10.60;99.90;;;;;;5034135;28;19925;-74
2021/09/04 03:40:24;;;;;;;;;;;10.50;99.90;;;;;;5050434;28;19925;-74
2021/09/04 03:42:51;;;;;;;;;;;10.50;99.90;;;;;;5050625;28;19931;-74
2021/09/04 03:45:23;;;;;;;;;;;10.50;99.90;;;;;;5034280;28;19925;-74
2021/09/04 03:47:55;;;;;;;;;;;10.40;99.90;;;;;;5050483;28;20382;-74
2021/09/04 03:50:29;;;;;;;;;;;10.40;99.90;;;;;;5034885;28;19924;-74
2021/09/04 03:53:01;;;;;;;;;;;10.50;99.90;;;;;;5051751;28;19960;-74
2021/09/04 03:55:31;;;;;;;;;;;10.40;99.90;;;;;;5050103;28;20390;-74
2021/09/04 03:58:03;;;;;;;;;;;10.40;99.90;;;;;;5050371;28;20353;-75
2021/09/04 04:00:31;;;;;;;;;;;10.40;99.90;;;;;;5034162;28;19960;-74
2021/09/04 04:03:02;;;;;;;;;;;10.40;99.90;;;;;;5034561;28;19947;-74
2021/09/04 04:05:30;;;;;;;;;;;10.40;99.90;;;;;;5033636;28;19956;-75
2021/09/04 04:07:57;;;;;;;;;;;10.30;99.90;;;;;;5033895;28;19932;-74
2021/09/04 04:10:29;;;;;;;;;;;10.30;99.90;;;;;;5034467;28;19925;-74
2021/09/04 04:12:56;;;;;;;;;;;10.20;99.90;;;;;;5033596;28;20027;-74
2021/09/04 04:15:28;;;;;;;;;;;10.10;99.90;;;;;;5050313;28;19925;-74
2021/09/04 04:18:01;;;;;;;;;;;10.10;99.90;;;;;;5034467;28;20383;-74
2021/09/04 04:20:33;;;;;;;;;;;10.10;99.90;;;;;;5050272;28;19931;-74
2021/09/04 04:23:04;;;;;;;;;;;10.10;99.90;;;;;;5050248;28;20326;-74
2021/09/04 04:25:32;;;;;;;;;;;10.10;99.90;;;;;;5049906;28;20307;-74
2021/09/04 04:27:59;;;;;;;;;;;10.00;99.90;;;;;;5050024;28;19925;-74
2021/09/04 04:30:27;;;;;;;;;;;9.90;99.90;;;;;;5051386;28;19929;-74
2021/09/04 04:32:59;;;;;;;;;;;9.90;99.90;;;;;;5049924;28;19959;-74
2021/09/04 04:35:27;;;;;;;;;;;9.90;99.90;;;;;;5033549;28;19971;-74
2021/09/04 04:37:54;;;;;;;;;;;9.90;99.90;;;;;;5049995;28;19928;-74
2021/09/04 04:40:22;;;;;;;;;;;9.80;99.90;;;;;;5052921;28;19928;-74
2021/09/04 04:42:54;;;;;;;;;;;9.80;99.90;;;;;;5053643;28;19964;-75
2021/09/04 04:45:21;;;;;;;;;;;9.90;99.90;;;;;;5053385;28;19971;-74
2021/09/04 04:47:53;;;;;;;;;;;9.80;99.90;;;;;;5054743;28;19925;-74
2021/09/04 04:50:25;;;;;;;;;;;9.80;99.90;;;;;;5037548;28;20023;-74
2021/09/04 04:52:57;;;;;;;;;;;9.90;99.90;;;;;;5054671;28;19931;-74
2021/09/04 04:55:24;;;;;;;;;;;9.80;99.90;;;;;;5053118;28;20012;-74
2021/09/04 04:57:57;;;;;;;;;;;9.70;99.90;;;;;;5037650;28;19931;-74
2021/09/04 05:00:24;;;;;;;;;;;9.60;99.90;;;;;;5036858;28;20345;-75
2021/09/04 05:02:56;;;;;;;;;;;9.60;99.90;;;;;;5037613;28;19925;-74
2021/09/04 05:05:28;;;;;;;;;;;9.60;99.90;;;;;;5037165;28;19932;-75
2021/09/04 05:07:56;;;;;;;;;;;9.60;99.90;;;;;;5053113;28;19925;-74
2021/09/04 05:10:28;;;;;;;;;;;9.70;99.90;;;;;;5037346;28;19967;-76
2021/09/04 05:12:55;;;;;;;;;;;9.70;99.90;;;;;;5017384;28;19925;-74
2021/09/04 05:15:22;;;;;;;;;;;9.70;99.90;;;;;;5032033;28;19925;-74
2021/09/04 05:17:55;;;;;;;;;;;9.80;99.90;;;;;;5032705;28;19940;-75
2021/09/04 05:20:23;;;;;;;;;;;9.80;99.90;;;;;;5032754;28;19925;-74
2021/09/04 05:22:51;;;;;;;;;;;9.90;99.90;;;;;;5031330;28;19929;-75
2021/09/04 05:25:24;;;;;;;;;;;9.90;99.90;;;;;;5032202;28;19925;-75
2021/09/04 05:27:51;;;;;;;;;;;10.00;99.90;;;;;;5031710;28;20028;-75
2021/09/04 05:30:23;;;;;;;;;;;10.00;99.90;;;;;;5017231;28;20040;-75
2021/09/04 05:32:49;;;;;;;;;;;10.10;99.90;;;;;;5032099;28;20024;-75
2021/09/04 05:35:16;;;;;;;;;;;10.10;99.90;;;;;;5031271;28;19961;-75
2021/09/04 05:37:43;;;;;;;;;;;10.20;99.90;;;;;;5032599;28;20410;-75
2021/09/04 05:40:10;;;;;;;;;;;10.20;99.90;;;;;;5032870;28;20259;-75
2021/09/04 05:42:36;;;;;;;;;;;10.20;99.90;;;;;;5032529;28;20020;-75
2021/09/04 05:45:04;;;;;;;;;;;10.20;99.90;;;;;;5032329;28;20434;-75
2021/09/04 05:47:31;;;;;;;;;;;10.30;99.90;;;;;;5032410;28;19972;-75
2021/09/04 05:49:58;;;;;;;;;;;10.30;99.90;;;;;;5032221;28;19972;-75
2021/09/04 05:52:24;;;;;;;;;;;10.30;99.90;;;;;;5032327;28;20040;-75
2021/09/04 05:54:56;;;;;;;;;;;10.30;99.90;;;;;;5031884;28;20409;-75
2021/09/04 05:57:28;;;;;;;;;;;10.30;99.90;;;;;;5032259;28;19925;-75
2021/09/04 05:59:55;;;;;;;;;;;10.30;99.90;;;;;;5032406;28;19925;-75
2021/09/04 06:02:21;;;;;;;;;;;10.30;99.90;;;;;;5032117;28;20027;-74
2021/09/04 06:04:53;;;;;;;;;;;10.30;99.90;;;;;;5016139;28;19932;-74
2021/09/04 06:07:20;;;;;;;;;;;10.30;99.90;;;;;;5042841;28;20363;-75
2021/09/04 06:09:47;;;;;;;;;;;10.30;99.90;;;;;;5040891;28;19925;-74
2021/09/04 06:12:13;;;;;;;;;;;10.30;99.90;;;;;;5045784;28;19931;-75
2021/09/04 06:14:40;;;;;;;;;;;10.30;99.90;;;;;;5034015;28;19972;-72
2021/09/04 06:17:07;;;;;;;;;;;10.30;99.90;;;;;;5028770;28;19925;-74
2021/09/04 06:19:34;;;;;;;;;;;10.30;99.90;;;;;;5051390;28;19994;-75
2021/09/04 06:22:01;;;;;;;;;;;10.40;99.90;;;;;;5047618;28;20020;-77
2021/09/04 06:24:32;;;;;;;;;;;10.40;99.90;;;;;;5016282;28;19925;-75
2021/09/04 06:26:59;;;;;;;;;;;10.50;99.90;;;;;;5050787;28;20023;-74
2021/09/04 06:29:26;;;;;;;;;;;10.50;99.90;;;;;;5027288;28;19925;-75
2021/09/04 06:31:58;;;;;;;;;;;10.60;99.90;;;;;;5030862;28;20024;-74
2021/09/04 06:34:25;;;;;;;;;;;10.60;99.90;;;;;;5030571;28;19960;-74
2021/09/04 06:36:56;;;;;;;;;;;10.70;99.90;;;;;;5035239;28;19929;-74
2021/09/04 06:39:28;;;;;;;;;;;10.80;99.90;;;;;;5031720;28;19986;-74
2021/09/04 06:41:55;;;;;;;;;;;10.80;99.90;;;;;;5034480;28;20016;-74
2021/09/04 06:44:26;;;;;;;;;;;10.90;99.90;;;;;;5030296;28;20367;-74
2021/09/04 06:46:58;;;;;;;;;;;11.00;99.90;;;;;;5048492;28;19925;-73
2021/09/04 06:49:25;;;;;;;;;;;11.10;99.90;;;;;;5030466;28;19925;-74
2021/09/04 06:51:53;;;;;;;;;;;11.20;99.90;;;;;;5031176;28;19972;-74
2021/09/04 06:54:25;;;;;;;;;;;11.30;99.90;;;;;;5047028;28;20047;-74
2021/09/04 06:56:58;;;;;;;;;;;11.40;99.90;;;;;;5036605;28;19925;-73
2021/09/04 06:59:30;;;;;;;;;;;11.50;99.90;;;;;;5034659;28;19931;-73
2021/09/04 07:02:01;;;;;;;;;;;11.70;99.90;;;;;;5031322;28;19935;-74
2021/09/04 07:04:33;;;;;;;;;;;11.80;99.90;;;;;;5050568;28;19925;-73
2021/09/04 07:07:05;;;;;;;;;;;11.90;99.90;;;;;;5050889;28;19964;-74
2021/09/04 07:09:32;;;;;;;;;;;12.00;99.90;;;;;;5050109;28;19936;-74
2021/09/04 07:12:00;;;;;;;;;;;12.10;99.90;;;;;;5036211;28;19925;-74
2021/09/04 07:14:26;;;;;;;;;;;12.20;99.90;;;;;;5036664;28;19925;-74
2021/09/04 07:19:34;;;;;;;;;;;12.40;99.90;;;;;;5028844;28;19932;-73
2021/09/04 07:22:06;;;;;;;;;;;12.50;99.90;;;;;;4997745;28;19932;-72
2021/09/04 07:24:33;;;;;;;;;;;12.60;99.90;;;;;;5013460;28;20391;-73
2021/09/04 07:27:05;;;;;;;;;;;12.70;99.90;;;;;;4998573;28;19924;-73
2021/09/04 07:29:32;;;;;;;;;;;12.70;99.90;;;;;;4997552;28;20384;-74
2021/09/04 07:32:03;;;;;;;;;;;12.80;99.90;;;;;;5014925;28;19925;-73
2021/09/04 07:34:35;;;;;;;;;;;12.90;99.90;;;;;;4997876;28;19925;-74
2021/09/04 07:37:02;;;;;;;;;;;13.00;99.90;;;;;;5014212;28;19926;-73
2021/09/04 07:39:33;;;;;;;;;;;13.10;99.90;;;;;;4998178;28;19925;-74
2021/09/04 07:42:00;;;;;;;;;;;13.20;99.90;;;;;;5031439;28;19964;-73
2021/09/04 07:44:33;;;;;;;;;;;13.30;99.90;;;;;;4998001;28;19929;-74
2021/09/04 07:47:05;;;;;;;;;;;13.40;99.90;;;;;;5010770;28;20359;-73
2021/09/04 07:49:32;;;;;;;;;;;13.60;99.90;;;;;;5005951;28;19940;-73
2021/09/04 07:51:58;;;;;;;;;;;13.70;99.90;;;;;;5019167;28;19929;-74
2021/09/04 07:54:25;;;;;;;;;;;13.80;99.90;;;;;;4992715;28;19925;-74
2021/09/04 07:56:57;;;;;;;;;;;13.90;99.90;;;;;;4993954;28;19925;-75
2021/09/04 07:59:31;;;;;;;;;;;14.00;99.90;;;;;;4990625;28;19926;-74
2021/09/04 08:02:03;;;;;;;;;;;14.20;99.90;;;;;;5012072;28;20394;-75
2021/09/04 08:04:30;;;;;;;;;;;14.30;99.90;;;;;;4983174;28;20454;-74
2021/09/04 08:07:01;;;;;;;;;;;14.40;99.90;;;;;;5006948;28;19929;-75
2021/09/04 08:09:29;;;;;;;;;;;14.50;99.90;;;;;;4996253;28;20012;-73
2021/09/04 08:11:56;;;;;;;;;;;14.70;99.90;;;;;;4994698;28;20028;-74
2021/09/04 08:14:31;;;;;;;;;;;14.80;99.90;;;;;;5013581;28;19925;-74
2021/09/04 08:17:03;;;;;;;;;;;14.90;99.90;;;;;;4999548;28;19936;-74
2021/09/04 08:19:30;;;;;;;;;;;15.00;99.90;;;;;;5015252;28;20442;-74
2021/09/04 08:22:02;;;;;;;;;;;15.20;99.90;;;;;;5033126;28;19931;-75
2021/09/04 08:24:31;;;;;;;;;;;15.30;99.90;;;;;;5032729;28;20023;-74
2021/09/04 08:26:58;;;;;;;;;;;15.40;99.90;;;;;;5017039;28;20020;-74
2021/09/04 08:29:30;;;;;;;;;;;15.60;99.90;;;;;;5015490;28;20414;-73
2021/09/04 08:31:57;;;;;;;;;;;15.70;99.90;;;;;;5000996;28;20374;-74
2021/09/04 08:34:28;;;;;;;;;;;15.80;99.90;;;;;;5034135;28;19932;-74
2021/09/04 08:36:55;;;;;;;;;;;15.90;99.90;;;;;;5000561;28;19929;-73
2021/09/04 08:39:25;;;;;;;;;;;16.10;99.90;;;;;;5016126;28;19940;-75
2021/09/04 08:41:52;;;;;;;;;;;16.20;99.90;;;;;;5016566;28;20008;-74
2021/09/04 08:44:23;;;;;;;;;;;16.30;99.90;;;;;;4998450;28;20292;-74
2021/09/04 08:46:51;;;;;;;;;;;16.40;99.90;;;;;;5034181;28;19963;-75
2021/09/04 08:49:22;;;;;;;;;;;16.50;99.90;;;;;;5017715;28;20024;-75
2021/09/04 08:51:49;;;;;;;;;;;16.60;99.90;;;;;;5000879;28;19971;-74
2021/09/04 08:54:16;;;;;;;;;;;16.70;99.90;;;;;;4999612;28;19925;-75
2021/09/04 08:56:48;;;;;;;;;;;16.90;99.90;;;;;;5016368;28;19987;-74
2021/09/04 08:59:14;;;;;;;;;;;17.00;99.90;;;;;;5000135;28;20335;-73
2021/09/04 09:01:46;;;;;;;;;;;17.10;99.90;;;;;;5011589;28;19961;-74
2021/09/04 09:04:22;;;;;;;;;;;17.20;99.90;;;;;;5000203;28;19959;-75
2021/09/04 09:06:52;;;;;;;;;;;17.40;99.90;;;;;;5013886;28;20064;-75
2021/09/04 09:09:24;;;;;;;;;;;17.50;99.90;;;;;;5012207;28;20457;-74
2021/09/04 09:11:57;;;;;;;;;;;17.70;99.90;;;;;;5032407;28;20003;-75
2021/09/04 09:14:29;;;;;;;;;;;17.80;99.90;;;;;;5013325;28;19925;-75
2021/09/04 09:16:57;;;;;;;;;;;18.00;99.90;;;;;;5016580;28;19925;-74
2021/09/04 09:19:37;;;;;;;;;;;18.10;99.90;;;;;;5000969;28;19968;-74
2021/09/04 09:22:12;;;;;;;;;;;18.20;99.90;;;;;;4999479;28;20462;-75
2021/09/04 09:24:44;;;;;;;;;;;18.40;99.90;;;;;;5015624;28;19979;-74
2021/09/04 09:27:14;;;;;;;;;;;18.50;99.90;;;;;;5016417;28;20402;-74
2021/09/04 09:29:44;;;;;;;;;;;18.60;99.90;;;;;;5016420;28;19956;-74
2021/09/04 09:32:16;;;;;;;;;;;18.80;99.90;;;;;;5001045;28;19925;-74
2021/09/04 09:34:49;;;;;;;;;;;18.90;99.90;;;;;;5015953;28;20019;-75
2021/09/04 09:37:15;;;;;;;;;;;19.10;99.90;;;;;;5000328;28;19971;-75
2021/09/04 09:39:48;;;;;;;;;;;19.20;99.90;;;;;;5000584;28;19960;-74
2021/09/04 09:42:15;;;;;;;;;;;19.30;99.90;;;;;;5000178;28;19959;-74
2021/09/04 09:44:46;;;;;;;;;;;19.40;99.90;;;;;;5016670;28;19948;-73
2021/09/04 09:47:13;;;;;;;;;;;19.50;99.90;;;;;;4999965;28;19929;-76
2021/09/04 09:49:40;;;;;;;;;;;19.60;99.90;;;;;;5015953;28;19925;-74
2021/09/04 09:52:12;;;;;;;;;;;19.70;99.90;;;;;;5015992;28;19932;-74
2021/09/04 09:54:47;;;;;;;;;;;19.80;99.90;;;;;;5016285;28;20012;-73
2021/09/04 09:57:14;;;;;;;;;;;19.90;99.90;;;;;;5016131;28;20017;-74
2021/09/04 09:59:47;;;;;;;;;;;20.00;99.90;;;;;;5000142;28;20442;-74
2021/09/04 10:02:19;;;;;;;;;;;20.10;99.90;;;;;;5016876;28;20008;-74
2021/09/04 10:04:51;;;;;;;;;;;20.20;99.90;;;;;;5015355;28;20028;-75
2021/09/04 10:07:22;;;;;;;;;;;20.40;99.90;;;;;;5015882;28;19979;-74
2021/09/04 10:09:50;;;;;;;;;;;20.30;99.90;;;;;;5015798;28;19971;-74
2021/09/04 10:12:22;;;;;;;;;;;20.30;99.90;;;;;;5000253;28;19979;-75
2021/09/04 10:14:50;;;;;;;;;;;20.30;99.90;;;;;;5015135;28;19957;-74
2021/09/04 10:17:22;;;;;;;;;;;20.40;99.90;;;;;;5000133;28;19948;-74
2021/09/04 10:19:54;;;;;;;;;;;20.50;99.90;;;;;;5033160;28;20024;-74
2021/09/04 10:22:26;;;;;;;;;;;20.60;99.90;;;;;;4999982;28;20012;-74
2021/09/04 10:25:02;;;;;;;;;;;20.80;99.90;;;;;;5015065;28;19929;-75
2021/09/04 10:27:39;;;;;;;;;;;20.80;99.90;;;;;;4999841;28;20310;-74
2021/09/04 10:30:30;;;;;;;;;;;20.90;99.90;;;;;;5032809;28;19968;-73
2021/09/04 10:33:08;;;;;;;;;;;21.00;99.90;;;;;;5032929;28;19932;-74
2021/09/04 10:35:39;;;;;;;;;;;21.10;99.90;;;;;;5015001;28;19931;-73
2021/09/04 10:38:18;;;;;;;;;;;21.20;99.90;;;;;;4998158;28;20027;-74
2021/09/04 10:40:49;;;;;;;;;;;21.20;99.90;;;;;;5015232;28;20646;-74
2021/09/04 10:43:21;;;;;;;;;;;21.20;99.90;;;;;;5016145;28;20014;-74
2021/09/04 10:45:48;;;;;;;;;;;21.10;99.90;;;;;;5014611;28;19932;-74
2021/09/04 10:48:21;;;;;;;;;;;21.10;99.90;;;;;;5015803;28;19931;-74
2021/09/04 10:51:02;;;;;;;;;;;21.30;99.90;;;;;;5015730;28;20015;-74
2021/09/04 10:53:41;;;;;;;;;;;21.40;99.90;;;;;;5015900;28;19925;-74
2021/09/04 10:56:23;;;;;;;;;;;21.60;99.90;;;;;;4999654;28;20379;-74
2021/09/04 10:58:50;;;;;;;;;;;21.70;99.90;;;;;;5014764;28;20131;-73
2021/09/04 11:01:27;;;;;;;;;;;21.70;99.90;;;;;;5015154;28;20023;-74
2021/09/04 11:03:56;;;;;;;;;;;21.80;99.90;;;;;;5014830;28;20461;-74
2021/09/04 11:06:28;;;;;;;;;;;22.00;99.90;;;;;;5032451;28;20285;-74
2021/09/04 11:08:55;;;;;;;;;;;22.10;99.90;;;;;;5014475;28;20498;-73
2021/09/04 11:11:24;;;;;;;;;;;22.20;99.90;;;;;;5014791;28;19961;-74
2021/09/04 11:13:57;;;;;;;;;;;22.20;99.90;;;;;;5014368;28;20036;-74
2021/09/04 11:16:29;;;;;;;;;;;22.20;99.90;;;;;;5032062;28;19975;-73
2021/09/04 11:19:05;;;;;;;;;;;22.30;99.90;;;;;;5014479;28;19929;-73
2021/09/04 11:21:43;;;;;;;;;;;22.40;99.90;;;;;;5014619;28;19926;-73
2021/09/04 11:24:11;;;;;;;;;;;22.60;99.90;;;;;;5014545;28;19963;-74
2021/09/04 11:26:46;;;;;;;;;;;22.70;99.90;;;;;;5014689;28;20015;-74
2021/09/04 11:29:13;;;;;;;;;;;22.80;99.90;;;;;;5032064;28;19925;-73
2021/09/04 11:32:00;;;;;;;;;;;22.80;99.90;;;;;;4998797;28;19925;-74
2021/09/04 11:34:48;;;;;;;;;;;22.90;99.90;;;;;;5014117;28;20027;-73
2021/09/04 11:37:25;;;;;;;;;;;23.00;99.90;;;;;;5014158;28;19965;-73
2021/09/04 11:39:54;;;;;;;;;;;23.10;99.90;;;;;;5014446;28;19968;-74
2021/09/04 11:42:27;;;;;;;;;;;23.20;99.90;;;;;;5015273;28;19925;-74
2021/09/04 11:45:19;;;;;;;;;;;23.20;99.90;;;;;;5014058;28;20020;-74
2021/09/04 11:47:52;;;;;;;;;;;23.20;99.90;;;;;;5033103;28;19983;-73
2021/09/04 11:50:19;;;;;;;;;;;23.20;99.90;;;;;;5018855;28;20024;-73
2021/09/04 11:52:46;;;;;;;;;;;23.20;99.90;;;;;;5018899;28;20020;-73
2021/09/04 11:55:22;;;;;;;;;;;23.20;99.90;;;;;;5017313;28;20349;-73
2021/09/04 11:57:58;;;;;;;;;;;23.30;99.90;;;;;;5010741;28;19947;-73
2021/09/04 12:00:28;;;;;;;;;;;23.30;99.90;;;;;;5002228;28;19962;-73
2021/09/04 12:02:55;;;;;;;;;;;23.40;99.90;;;;;;5015613;28;19968;-74
2021/09/04 12:05:29;;;;;;;;;;;23.40;99.90;;;;;;5019378;28;20302;-74
2021/09/04 12:08:02;;;;;;;;;;;23.50;99.90;;;;;;5016785;28;20023;-74
2021/09/04 12:10:30;;;;;;;;;;;23.60;99.90;;;;;;5004148;28;19947;-74
2021/09/04 12:13:06;;;;;;;;;;;23.80;99.90;;;;;;5000497;28;19992;-74
2021/09/04 12:15:38;;;;;;;;;;;23.80;99.50;;;;;;5002157;28;20028;-74
2021/09/04 12:18:10;;;;;;;;;;;23.80;98.30;;;;;;5017952;28;19925;-74
2021/09/04 12:20:46;;;;;;;;;;;23.90;99.40;;;;;;5019463;28;19964;-74
2021/09/04 12:23:16;;;;;;;;;;;24.00;98.40;;;;;;5018283;28;19925;-74
2021/09/04 12:25:49;;;;;;;;;;;24.00;97.90;;;;;;5017783;28;19929;-73
2021/09/04 12:28:22;;;;;;;;;;;24.10;97.50;;;;;;5013007;28;19975;-74
2021/09/04 12:31:26;;;;;;;;;;;24.00;95.20;;;;;;5022842;28;20548;-73
2021/09/04 12:34:00;;;;;;;;;;;24.10;96.00;;;;;;4969792;28;19955;-74
2021/09/04 12:36:27;;;;;;;;;;;24.20;94.70;;;;;;5014375;28;19925;-74
2021/09/04 12:38:55;;;;;;;;;;;24.20;93.30;;;;;;5016724;28;20031;-74
2021/09/04 12:41:31;;;;;;;;;;;24.30;91.80;;;;;;5011728;28;19929;-73
2021/09/04 12:43:59;;;;;;;;;;;24.30;91.70;;;;;;5014377;28;20395;-74
2021/09/04 12:46:32;;;;;;;;;;;24.30;92.30;;;;;;5011512;28;19964;-74
2021/09/04 12:48:59;;;;;;;;;;;24.40;93.00;;;;;;5009940;28;19964;-74
2021/09/04 12:51:32;;;;;;;;;;;24.40;93.30;;;;;;4998523;28;19929;-74
2021/09/04 12:54:05;;;;;;;;;;;24.40;90.80;;;;;;5015285;28;20362;-73
2021/09/04 12:56:43;;;;;;;;;;;24.40;91.60;;;;;;5026704;28;20016;-74
2021/09/04 12:59:11;;;;;;;;;;;24.50;92.60;;;;;;5005799;28;19961;-74
2021/09/04 13:01:39;;;;;;;;;;;24.60;92.20;;;;;;5014644;28;19975;-74
2021/09/04 13:04:11;;;;;;;;;;;24.60;93.70;;;;;;5003087;28;20036;-74
2021/09/04 13:06:37;;;;;;;;;;;24.70;92.80;;;;;;5025226;28;19934;-74
2021/09/04 13:09:04;;;;;;;;;;;24.70;92.70;;;;;;5023271;28;19929;-74
2021/09/04 13:11:36;;;;;;;;;;;24.80;93.10;;;;;;4990418;28;20423;-74
2021/09/04 13:14:04;;;;;;;;;;;24.80;93.10;;;;;;5013448;28;19925;-73
2021/09/04 13:16:30;;;;;;;;;;;24.80;90.60;;;;;;4990327;28;20012;-73
2021/09/04 13:19:02;;;;;;;;;;;24.70;90.40;;;;;;5032237;28;20347;-73
2021/09/04 13:21:33;;;;;;;;;;;24.80;90.80;;;;;;4999742;28;20461;-74
2021/09/04 13:24:00;;;;;;;;;;;24.80;90.70;;;;;;5033627;28;19956;-74
2021/09/04 13:26:32;;;;;;;;;;;24.90;90.20;;;;;;5015705;28;19996;-74
2021/09/04 13:29:03;;;;;;;;;;;25.00;86.80;;;;;;5000101;28;19948;-73
2021/09/04 13:31:30;;;;;;;;;;;24.90;87.90;;;;;;5015699;28;19948;-74
2021/09/04 13:33:57;;;;;;;;;;;25.00;85.80;;;;;;5014553;28;19925;-75
2021/09/04 13:36:28;;;;;;;;;;;25.00;88.30;;;;;;4997628;28;19931;-74
2021/09/04 13:39:00;;;;;;;;;;;25.10;90.40;;;;;;5012885;28;20422;-73
2021/09/04 13:41:27;;;;;;;;;;;25.10;87.70;;;;;;5011405;28;20435;-74
2021/09/04 13:43:53;;;;;;;;;;;25.20;84.90;;;;;;5004617;28;19925;-74
2021/09/04 13:46:25;;;;;;;;;;;25.20;87.80;;;;;;5021913;28;19925;-74
2021/09/04 13:48:57;;;;;;;;;;;25.20;85.20;;;;;;4996832;28;19932;-74
2021/09/04 13:51:24;;;;;;;;;;;25.30;85.20;;;;;;5027015;28;19925;-74
2021/09/04 13:53:50;;;;;;;;;;;25.30;81.40;;;;;;5012463;28;20711;-74
2021/09/04 13:56:17;;;;;;;;;;;25.40;85.50;;;;;;5014043;28;19925;-75
2021/09/04 13:58:44;;;;;;;;;;;25.50;83.20;;;;;;5012166;28;20020;-74
2021/09/04 14:01:16;;;;;;;;;;;25.50;83.90;;;;;;5000963;28;20277;-74
2021/09/04 14:03:42;;;;;;;;;;;25.60;84.00;;;;;;5007228;28;20027;-73
2021/09/04 14:06:14;;;;;;;;;;;25.60;81.20;;;;;;5011264;28;19925;-75
2021/09/04 14:08:45;;;;;;;;;;;25.40;79.30;;;;;;5030963;28;20391;-76
2021/09/04 14:11:12;;;;;;;;;;;25.50;82.40;;;;;;5031206;28;19994;-74
2021/09/04 14:13:39;;;;;;;;;;;25.50;85.50;;;;;;5004567;28;19929;-75
2021/09/04 14:16:10;;;;;;;;;;;25.60;82.80;;;;;;5025009;28;19925;-75
2021/09/04 14:18:42;;;;;;;;;;;25.70;83.30;;;;;;5028197;28;19972;-75
2021/09/04 14:21:14;;;;;;;;;;;25.80;82.10;;;;;;4996114;28;19933;-74
2021/09/04 14:23:40;;;;;;;;;;;25.90;82.20;;;;;;5012072;28;19968;-75
2021/09/04 14:26:07;;;;;;;;;;;26.10;80.80;;;;;;4994454;28;19975;-74
2021/09/04 14:28:39;;;;;;;;;;;26.20;81.80;;;;;;5003926;28;19952;-75
2021/09/04 14:31:10;;;;;;;;;;;26.30;79.20;;;;;;5024352;28;20402;-76
2021/09/04 14:33:42;;;;;;;;;;;26.40;77.10;;;;;;5028427;28;19932;-74
2021/09/04 14:36:14;;;;;;;;;;;26.50;78.70;;;;;;4996420;28;19967;-74
2021/09/04 14:38:45;;;;;;;;;;;26.70;79.10;;;;;;4996759;28;19964;-75